createdAt,value
2022-11-29T00:01:07.083Z,101224.60
2022-11-29T00:06:18.919Z,101224.80
2022-11-29T00:11:47.338Z,101222.40
2022-11-29T00:16:53.997Z,101233.60
2022-11-29T00:21:57.238Z,101230.80
2022-11-29T00:27:01.540Z,101230.60
2022-11-29T00:32:05.287Z,101229.00
2022-11-29T00:37:08.366Z,101234.40
2022-11-29T00:42:11.777Z,101234.20
2022-11-29T00:47:14.880Z,101234.80
2022-11-29T00:52:17.893Z,101233.80
2022-11-29T00:57:21.294Z,101234.80
2022-11-29T01:02:24.433Z,101233.40
2022-11-29T01:07:27.848Z,101229.20
2022-11-29T01:12:31.636Z,101227.20
2022-11-29T01:17:39.896Z,101230.20
2022-11-29T01:22:43.700Z,101226.60
2022-11-29T01:27:47.917Z,101216.60
2022-11-29T01:32:51.434Z,101221.80
2022-11-29T01:37:54.643Z,101219.60
2022-11-29T01:42:58.067Z,101224.60
2022-11-29T01:48:01.719Z,101220.00
2022-11-29T01:53:06.695Z,101221.40
2022-11-29T01:58:10.141Z,101216.20
2022-11-29T02:03:17.849Z,101217.20
2022-11-29T02:08:30.791Z,101210.60
2022-11-29T02:13:54.171Z,101211.00
2022-11-29T02:19:25.339Z,101212.40
2022-11-29T02:24:52.011Z,101212.20
2022-11-29T02:30:16.539Z,101209.40
2022-11-29T02:35:57.504Z,101217.20
2022-11-29T02:41:58.063Z,101215.40
2022-11-29T02:47:48.055Z,101227.00
2022-11-29T02:52:59.966Z,101222.60
2022-11-29T02:58:47.925Z,101221.00
2022-11-29T03:04:02.747Z,101227.80
2022-11-29T03:09:55.738Z,101228.40
2022-11-29T03:15:27.494Z,101228.60
2022-11-29T03:20:58.420Z,101229.00
2022-11-29T03:26:35.708Z,101230.60
2022-11-29T03:32:06.890Z,101227.20
2022-11-29T03:37:24.741Z,101234.00
2022-11-29T03:43:01.543Z,101232.80
2022-11-29T03:48:17.371Z,101234.80
2022-11-29T03:53:34.376Z,101231.80
2022-11-29T03:59:09.840Z,101235.40
2022-11-29T04:04:50.327Z,101244.20
2022-11-29T04:10:36.639Z,101250.20
2022-11-29T04:16:04.828Z,101249.80
2022-11-29T04:21:23.465Z,101249.00
2022-11-29T04:27:06.260Z,101254.60
2022-11-29T04:32:37.822Z,101253.20
2022-11-29T04:38:36.222Z,101254.40
2022-11-29T04:43:53.429Z,101257.80
2022-11-29T04:49:41.728Z,101262.80
2022-11-29T04:55:10.754Z,101263.60
2022-11-29T05:00:20.772Z,101268.60
2022-11-29T05:05:51.965Z,101275.60
2022-11-29T05:11:26.630Z,101273.20
2022-11-29T05:17:08.739Z,101275.00
2022-11-29T05:22:34.580Z,101279.20
2022-11-29T05:28:17.011Z,101278.60
2022-11-29T05:33:53.595Z,101282.20
2022-11-29T05:39:18.521Z,101287.40
2022-11-29T05:44:33.600Z,101287.20
2022-11-29T05:49:41.720Z,101281.20
2022-11-29T05:55:28.553Z,101294.00
2022-11-29T06:01:20.967Z,101291.20
2022-11-29T06:07:23.582Z,101294.20
2022-11-29T06:12:28.332Z,101297.40
2022-11-29T06:17:39.407Z,101300.80
2022-11-29T06:22:50.649Z,101299.00
2022-11-29T06:28:25.090Z,101298.60
2022-11-29T06:33:46.889Z,101316.40
2022-11-29T06:38:50.757Z,101322.60
2022-11-29T06:43:54.667Z,101327.40
2022-11-29T06:49:04.082Z,101335.40
2022-11-29T06:54:19.352Z,101342.00
2022-11-29T06:59:41.196Z,101343.00
2022-11-29T07:04:53.500Z,101345.00
2022-11-29T07:09:59.745Z,101342.40
2022-11-29T07:15:03.812Z,101342.60
2022-11-29T07:20:45.924Z,101345.00
2022-11-29T07:26:01.939Z,101345.40
2022-11-29T07:31:17.274Z,101343.60
2022-11-29T07:37:10.020Z,101351.60
2022-11-29T07:42:49.463Z,101353.40
2022-11-29T07:47:52.782Z,101361.40
2022-11-29T07:52:57.925Z,101360.00
2022-11-29T07:58:01.038Z,101362.40
2022-11-29T08:03:05.362Z,101368.20
2022-11-29T08:08:08.475Z,101371.20
2022-11-29T08:13:11.777Z,101369.20
2022-11-29T08:18:16.326Z,101372.40
2022-11-29T08:23:19.460Z,101366.40
2022-11-29T08:28:22.632Z,101371.00
2022-11-29T08:33:25.739Z,101374.20
2022-11-29T08:38:29.151Z,101376.80
2022-11-29T08:43:33.383Z,101372.60
2022-11-29T08:48:37.252Z,101380.80
2022-11-29T08:53:43.896Z,101377.00
2022-11-29T08:58:47.552Z,101378.20
2022-11-29T09:03:59.779Z,101381.00
2022-11-29T09:09:04.281Z,101381.00
2022-11-29T09:14:11.861Z,101379.80
2022-11-29T09:19:15.198Z,101378.20
2022-11-29T09:24:18.944Z,101372.60
2022-11-29T09:29:22.133Z,101374.40
2022-11-29T09:34:25.449Z,101371.80
2022-11-29T09:39:28.543Z,101370.00
2022-11-29T09:44:37.414Z,101367.00
2022-11-29T09:50:04.144Z,101368.60
2022-11-29T09:55:43.197Z,101365.80
2022-11-29T10:00:52.839Z,101359.20
2022-11-29T10:06:13.786Z,101362.40
2022-11-29T10:11:22.649Z,101363.40
2022-11-29T10:16:34.775Z,101369.20
2022-11-29T10:21:45.650Z,101367.60
2022-11-29T10:26:48.932Z,101374.80
2022-11-29T10:31:56.958Z,101373.20
2022-11-29T10:37:02.825Z,101370.80
2022-11-29T10:42:36.159Z,101368.80
2022-11-29T10:47:40.078Z,101375.80
2022-11-29T10:52:43.173Z,101377.40
2022-11-29T10:58:32.054Z,101382.40
2022-11-29T11:03:42.431Z,101384.20
2022-11-29T11:08:52.711Z,101387.00
2022-11-29T11:14:26.138Z,101393.00
2022-11-29T11:19:33.964Z,101394.20
2022-11-29T11:24:42.359Z,101390.60
2022-11-29T11:29:45.982Z,101395.80
2022-11-29T11:35:01.611Z,101391.80
2022-11-29T11:40:29.468Z,101392.00
2022-11-29T11:45:38.933Z,101394.80
2022-11-29T11:50:51.609Z,101392.40
2022-11-29T11:56:00.908Z,101395.80
2022-11-29T12:01:30.417Z,101394.40
2022-11-29T12:06:59.872Z,101401.40
2022-11-29T12:12:21.706Z,101400.80
2022-11-29T12:17:53.004Z,101405.00
2022-11-29T12:23:17.217Z,101404.80
2022-11-29T12:28:24.783Z,101395.80
2022-11-29T12:33:54.345Z,101406.60
2022-11-29T12:39:20.563Z,101407.40
2022-11-29T12:44:54.078Z,101408.40
2022-11-29T12:50:39.988Z,101411.40
2022-11-29T12:55:49.353Z,101409.00
2022-11-29T13:01:01.665Z,101409.40
2022-11-29T13:06:25.248Z,101409.00
2022-11-29T13:11:56.002Z,101421.20
2022-11-29T13:17:05.121Z,101422.80
2022-11-29T13:22:20.148Z,101428.40
2022-11-29T13:27:35.017Z,101432.00
2022-11-29T13:33:01.067Z,101442.40
2022-11-29T13:38:19.538Z,101441.80
2022-11-29T13:43:45.585Z,101447.80
2022-11-29T13:48:54.778Z,101447.80
2022-11-29T13:54:03.701Z,101449.20
2022-11-29T13:59:27.972Z,101447.60
2022-11-29T14:04:45.429Z,101453.80
2022-11-29T14:09:51.207Z,101460.20
2022-11-29T14:15:04.094Z,101461.60
2022-11-29T14:20:22.682Z,101462.00
2022-11-29T14:31:03.403Z,101462.40
2022-11-29T14:36:17.778Z,101461.20
2022-11-29T14:41:53.790Z,101467.80
2022-11-29T14:47:08.304Z,101465.00
2022-11-29T14:52:14.609Z,101469.40
2022-11-29T14:57:52.345Z,101470.00
2022-11-29T15:03:15.810Z,101472.80
2022-11-29T15:08:41.134Z,101475.80
2022-11-29T15:14:21.001Z,101478.40
2022-11-29T15:19:51.558Z,101478.40
2022-11-29T15:24:54.872Z,101477.00
2022-11-29T15:30:00.149Z,101471.60
2022-11-29T15:35:04.785Z,101472.60
2022-11-29T15:40:31.682Z,101478.00
2022-11-29T15:45:40.233Z,101484.60
2022-11-29T15:51:22.396Z,101488.20
2022-11-29T15:56:52.316Z,101490.60
2022-11-29T16:02:04.106Z,101492.80
2022-11-29T16:07:08.181Z,101496.80
2022-11-29T16:12:18.433Z,101495.00
2022-11-29T16:17:22.251Z,101502.20
2022-11-29T16:22:25.614Z,101499.20
2022-11-29T16:27:36.364Z,101507.60
2022-11-29T16:32:44.252Z,101505.40
2022-11-29T16:37:48.300Z,101518.00
2022-11-29T16:43:03.693Z,101520.60
2022-11-29T16:48:22.152Z,101513.80
2022-11-29T16:53:38.080Z,101522.80
2022-11-29T16:59:16.905Z,101521.40
2022-11-29T17:04:10.051Z,101524.60
2022-11-29T17:09:28.484Z,101527.40
2022-11-29T17:14:33.087Z,101533.60
2022-11-29T17:19:36.288Z,101525.80
2022-11-29T17:24:47.740Z,101526.80
2022-11-29T17:29:51.753Z,101532.20
2022-11-29T17:34:55.253Z,101537.20
2022-11-29T17:39:58.479Z,101535.20
2022-11-29T17:45:02.166Z,101546.60
2022-11-29T17:50:06.781Z,101546.40
2022-11-29T17:55:10.631Z,101538.40
2022-11-29T18:00:15.895Z,101537.00
2022-11-29T18:05:19.093Z,101542.80
2022-11-29T18:10:22.410Z,101555.20
2022-11-29T18:15:25.612Z,101547.40
2022-11-29T18:20:28.722Z,101553.80
2022-11-29T18:25:38.648Z,101546.60
2022-11-29T18:30:42.694Z,101545.60
2022-11-29T18:35:46.752Z,101549.00
2022-11-29T18:40:49.953Z,101547.80
2022-11-29T18:45:53.305Z,101558.00
2022-11-29T18:51:05.704Z,101551.00
2022-11-29T18:56:18.223Z,101550.00
2022-11-29T19:01:23.696Z,101553.20
2022-11-29T19:06:39.321Z,101559.00
2022-11-29T19:11:43.405Z,101556.40
2022-11-29T19:16:49.017Z,101554.80
2022-11-29T19:21:53.007Z,101559.60
2022-11-29T19:26:56.513Z,101557.60
2022-11-29T19:31:59.619Z,101563.00
2022-11-29T19:37:02.739Z,101565.40
2022-11-29T19:42:06.037Z,101566.60
2022-11-29T19:47:09.144Z,101574.00
2022-11-29T19:52:12.472Z,101574.80
2022-11-29T19:57:15.668Z,101580.60
2022-11-29T20:02:18.939Z,101586.20
2022-11-29T20:07:22.462Z,101585.60
2022-11-29T20:12:25.699Z,101586.60
2022-11-29T20:17:29.013Z,101585.20
2022-11-29T20:22:32.232Z,101582.40
2022-11-29T20:27:35.431Z,101590.60
2022-11-29T20:32:38.945Z,101595.40
2022-11-29T20:37:49.626Z,101597.20
2022-11-29T20:43:05.021Z,101592.80
2022-11-29T20:48:17.237Z,101597.60
2022-11-29T20:53:41.640Z,101593.40
2022-11-29T20:58:44.854Z,101604.00
2022-11-29T21:03:48.237Z,101602.40
2022-11-29T21:08:51.581Z,101602.60
2022-11-29T21:13:55.402Z,101604.00
2022-11-29T21:19:02.390Z,101607.60
2022-11-29T21:24:25.480Z,101614.20
2022-11-29T21:29:29.497Z,101610.60
2022-11-29T21:34:34.345Z,101612.40
2022-11-29T21:39:39.703Z,101620.20
2022-11-29T21:44:42.922Z,101626.00
2022-11-29T21:49:47.146Z,101630.20
2022-11-29T21:54:50.976Z,101632.60
2022-11-29T21:59:54.187Z,101640.80
2022-11-29T22:04:57.299Z,101629.20
2022-11-29T22:10:09.994Z,101636.80
2022-11-29T22:15:20.214Z,101636.60
2022-11-29T22:20:24.831Z,101636.80
2022-11-29T22:25:28.047Z,101643.80
2022-11-29T22:30:31.150Z,101638.00
2022-11-29T22:35:34.354Z,101638.20
2022-11-29T22:40:37.458Z,101640.00
2022-11-29T22:45:40.566Z,101644.60
2022-11-29T22:50:43.674Z,101642.60
2022-11-29T22:55:46.821Z,101639.00
2022-11-29T23:00:49.931Z,101644.20
2022-11-29T23:05:53.028Z,101637.20
2022-11-29T23:10:57.695Z,101635.80
2022-11-29T23:16:01.877Z,101644.20
2022-11-29T23:21:09.576Z,101651.00
2022-11-29T23:26:29.742Z,101646.40
2022-11-29T23:31:33.971Z,101643.20
2022-11-29T23:36:37.141Z,101642.20
2022-11-29T23:41:40.380Z,101639.00
2022-11-29T23:46:43.450Z,101638.60
2022-11-29T23:51:46.469Z,101642.80
2022-11-29T23:56:49.649Z,101643.80
